KBKE/BKE METAR and TAF weather

Enter ICAO airport designator
Station Type Date Time Source
KBKE METAR 2020/04/04 05:53 UTC NOAA

KBKE 040553Z AUTO 35008KT 10SM CLR 01/M05 A2990 RMK AO2 SLP144 T00111050 10106 20011 53016


Station Type Date Time Source
KBKE Decoded METAR 2020/04/04 05:53 UTC NOAA

BAKER MUNICIPAL AIRPORT, OR, United States (KBKE) 44-50N 117-49W 1024M
Apr 04, 2020 - 01:53 AM EDT / 2020.04.04 0553 UTC
Wind: from the N (350 degrees) at 9 MPH (8 KT):0
Visibility: 10 mile(s):0
Sky conditions: clear
Temperature: 34.0 F (1.1 C)
Windchill: 26 F (-3 C):1
Dew Point: 23.0 F (-5.0 C)
Relative Humidity: 63%
Pressure (altimeter): 29.9 in. Hg (1012 hPa)
Pressure tendency: 0.05 inches (1.6 hPa) higher than three hours ago
ob: KBKE 040553Z AUTO 35008KT 10SM CLR 01/M05 A2990 RMK AO2 SLP144 T00111050 10106 20011 53016
cycle: 6

Station Type Date Time Source
KBKE TAF 2020/04/04 06:27 UTC NOAA

TAF KBKE 040524Z 0406/0506 32005KT P6SM SCT200
TEMPO 0410/0414 1/2SM FG VV002
FM041800 13010G18KT P6SM BKN120
FM042200 14010G16KT P6SM VCSH BKN080
FM050200 16008KT 3SM -RASN BR BKN020

Example: see airport list